createdAt,value
2018-01-12T00:00:06.213Z,0.00
2018-01-12T00:01:06.217Z,0.00
2018-01-12T00:02:06.217Z,0.00
2018-01-12T00:03:06.224Z,0.00
2018-01-12T00:04:06.222Z,0.00
2018-01-12T00:05:06.223Z,0.00
2018-01-12T00:06:06.225Z,0.00
2018-01-12T00:07:06.230Z,0.00
2018-01-12T00:08:06.230Z,0.00
2018-01-12T00:09:06.232Z,0.00
2018-01-12T00:10:06.240Z,0.00
2018-01-12T00:11:06.245Z,0.00
2018-01-12T00:12:06.238Z,0.00
2018-01-12T00:13:06.244Z,0.00
2018-01-12T00:14:06.250Z,0.00
2018-01-12T00:15:06.247Z,0.00
2018-01-12T00:16:06.252Z,0.00
2018-01-12T00:17:06.253Z,0.00
2018-01-12T00:18:06.258Z,0.00
2018-01-12T00:19:06.257Z,0.00
2018-01-12T00:20:06.264Z,0.00
2018-01-12T00:21:06.261Z,0.00
2018-01-12T00:22:06.263Z,0.00
2018-01-12T00:23:06.264Z,0.00
2018-01-12T00:24:06.269Z,0.00
2018-01-12T00:25:06.271Z,0.00
2018-01-12T00:26:06.276Z,0.00
2018-01-12T00:27:06.275Z,0.00
2018-01-12T00:28:08.632Z,0.00
2018-01-12T00:29:06.281Z,0.00
2018-01-12T00:30:06.282Z,0.00
2018-01-12T00:31:06.286Z,0.00
2018-01-12T00:32:06.286Z,0.00
2018-01-12T00:33:06.292Z,0.00
2018-01-12T00:34:06.295Z,0.00
2018-01-12T00:35:06.297Z,0.00
2018-01-12T00:36:06.295Z,0.00
2018-01-12T00:37:06.299Z,0.00
2018-01-12T00:38:06.303Z,0.00
2018-01-12T00:39:06.308Z,0.00
2018-01-12T00:40:06.313Z,0.00
2018-01-12T00:41:06.312Z,0.00
2018-01-12T00:42:06.312Z,0.00
2018-01-12T00:43:06.317Z,0.00
2018-01-12T00:44:06.320Z,0.00
2018-01-12T00:45:06.320Z,0.00
2018-01-12T00:46:06.326Z,0.00
2018-01-12T00:47:06.325Z,0.00
2018-01-12T00:48:06.328Z,0.00
2018-01-12T00:49:06.329Z,0.00
2018-01-12T00:50:06.339Z,0.00
2018-01-12T00:51:06.337Z,0.00
2018-01-12T00:52:06.341Z,0.00
2018-01-12T00:53:06.341Z,0.00
2018-01-12T00:54:06.342Z,0.00
2018-01-12T00:55:06.350Z,0.00
2018-01-12T00:56:06.351Z,0.00
2018-01-12T00:57:06.349Z,0.00
2018-01-12T00:58:06.354Z,0.00
2018-01-12T00:59:06.361Z,0.00
2018-01-12T01:00:06.362Z,0.00
2018-01-12T01:01:06.361Z,0.00
2018-01-12T01:02:06.364Z,0.00
2018-01-12T01:03:06.368Z,0.00
2018-01-12T01:04:06.374Z,0.00
2018-01-12T01:05:06.425Z,0.00
2018-01-12T01:06:06.373Z,0.00
2018-01-12T01:07:06.383Z,0.00
2018-01-12T01:08:06.375Z,0.00
2018-01-12T01:09:06.384Z,0.00
2018-01-12T01:10:06.399Z,0.00
2018-01-12T01:11:06.385Z,0.00
2018-01-12T01:12:06.387Z,0.00
2018-01-12T01:13:06.396Z,0.00
2018-01-12T01:14:06.399Z,0.00
2018-01-12T01:15:06.396Z,0.00
2018-01-12T01:16:06.398Z,0.00
2018-01-12T01:17:06.404Z,0.00
2018-01-12T01:18:06.404Z,0.00
2018-01-12T01:19:06.407Z,0.00
2018-01-12T01:20:06.412Z,0.00
2018-01-12T01:21:06.410Z,0.00
2018-01-12T01:22:06.416Z,0.00
2018-01-12T01:23:06.414Z,0.00
2018-01-12T01:24:06.420Z,0.00
2018-01-12T01:25:06.424Z,0.00
2018-01-12T01:26:06.424Z,0.00
2018-01-12T01:27:06.431Z,0.00
2018-01-12T01:28:06.428Z,0.00
2018-01-12T01:29:06.434Z,0.00
2018-01-12T01:30:06.432Z,0.00
2018-01-12T01:31:06.442Z,0.00
2018-01-12T01:32:06.440Z,0.00
2018-01-12T01:33:06.446Z,0.00
2018-01-12T01:34:06.446Z,0.00
2018-01-12T01:35:06.452Z,0.00
2018-01-12T01:36:06.451Z,0.00
2018-01-12T01:37:06.458Z,0.00
2018-01-12T01:38:06.456Z,0.00
2018-01-12T01:39:06.467Z,0.00
2018-01-12T01:40:06.465Z,0.00
2018-01-12T01:41:06.463Z,0.00
2018-01-12T01:42:06.472Z,0.00
2018-01-12T01:43:06.468Z,0.00
2018-01-12T01:44:06.474Z,0.00
2018-01-12T01:45:06.481Z,0.00
2018-01-12T01:46:06.482Z,0.00
2018-01-12T01:47:06.478Z,0.00
2018-01-12T01:48:06.481Z,0.00
2018-01-12T01:49:06.483Z,0.00
2018-01-12T01:50:06.493Z,0.00
2018-01-12T01:51:06.490Z,0.00
2018-01-12T01:52:06.497Z,0.00
2018-01-12T01:53:06.496Z,0.00
2018-01-12T01:54:06.503Z,0.00
2018-01-12T01:55:06.501Z,0.00
2018-01-12T01:56:06.507Z,0.00
2018-01-12T01:57:06.508Z,0.00
2018-01-12T01:58:06.512Z,0.00
2018-01-12T01:59:06.514Z,0.00
2018-01-12T02:00:06.516Z,0.00
2018-01-12T02:01:06.516Z,0.00
2018-01-12T02:02:06.521Z,0.00
2018-01-12T02:03:06.527Z,0.00
2018-01-12T02:04:06.527Z,0.00
2018-01-12T02:05:06.528Z,0.00
2018-01-12T02:06:06.533Z,0.00
2018-01-12T02:07:06.533Z,0.00
2018-01-12T02:08:06.599Z,0.00
2018-01-12T02:09:06.535Z,0.00
2018-01-12T02:10:06.544Z,0.00
2018-01-12T02:11:06.543Z,0.00
2018-01-12T02:12:06.546Z,0.00
2018-01-12T02:13:06.550Z,0.00
2018-01-12T02:14:06.553Z,0.00
2018-01-12T02:15:06.555Z,0.00
2018-01-12T02:16:06.556Z,0.00
2018-01-12T02:17:06.563Z,0.00
2018-01-12T02:18:06.566Z,0.00
2018-01-12T02:19:06.622Z,0.00
2018-01-12T02:20:06.572Z,0.00
2018-01-12T02:21:06.570Z,0.00
2018-01-12T02:22:06.576Z,0.00
2018-01-12T02:23:06.579Z,0.00
2018-01-12T02:24:06.582Z,0.00
2018-01-12T02:25:06.581Z,0.00
2018-01-12T02:26:06.584Z,0.00
2018-01-12T02:27:06.594Z,0.00
2018-01-12T02:28:06.588Z,0.00
2018-01-12T02:29:06.592Z,0.00
2018-01-12T02:30:06.597Z,0.00
2018-01-12T02:31:06.604Z,0.00
2018-01-12T02:32:06.599Z,0.00
2018-01-12T02:33:06.622Z,0.00
2018-01-12T02:34:06.605Z,0.00
2018-01-12T02:35:06.611Z,0.00
2018-01-12T02:36:06.614Z,0.00
2018-01-12T02:37:06.614Z,0.00
2018-01-12T02:38:06.614Z,0.00
2018-01-12T02:39:06.621Z,0.00
2018-01-12T02:40:06.622Z,0.00
2018-01-12T02:41:06.624Z,0.00
2018-01-12T02:42:06.625Z,0.00
2018-01-12T02:43:06.637Z,0.00
2018-01-12T02:44:06.635Z,0.00
2018-01-12T02:45:06.633Z,0.00
2018-01-12T02:46:06.638Z,0.00
2018-01-12T02:47:06.637Z,0.00
2018-01-12T02:48:06.643Z,0.00
2018-01-12T02:49:06.642Z,0.00
2018-01-12T02:50:06.648Z,0.00
2018-01-12T02:51:06.652Z,0.00
2018-01-12T02:52:06.649Z,0.00
2018-01-12T02:53:08.099Z,0.00
2018-01-12T02:54:08.010Z,0.00
2018-01-12T02:55:07.119Z,0.00
2018-01-12T02:56:06.660Z,0.00
2018-01-12T02:57:06.667Z,0.00
2018-01-12T02:58:06.666Z,0.00
2018-01-12T02:59:06.672Z,0.00
2018-01-12T03:00:06.675Z,0.00
2018-01-12T03:01:06.673Z,0.00
2018-01-12T03:02:06.673Z,0.00
2018-01-12T03:03:06.680Z,0.00
2018-01-12T03:04:06.683Z,0.00
2018-01-12T03:05:06.684Z,0.00
2018-01-12T03:06:06.685Z,0.00
2018-01-12T03:07:06.693Z,0.00
2018-01-12T03:08:06.693Z,0.00
2018-01-12T03:09:06.694Z,0.00
2018-01-12T03:10:06.697Z,0.00
2018-01-12T03:11:06.818Z,0.00
2018-01-12T03:12:06.704Z,0.00
2018-01-12T03:13:06.704Z,0.00
2018-01-12T03:14:06.711Z,0.00
2018-01-12T03:15:06.712Z,0.00
2018-01-12T03:16:06.714Z,0.00
2018-01-12T03:17:06.720Z,0.00
2018-01-12T03:18:06.726Z,0.00
2018-01-12T03:19:06.721Z,0.00
2018-01-12T03:20:06.725Z,0.00
2018-01-12T03:21:06.729Z,0.00
2018-01-12T03:22:06.730Z,0.00
2018-01-12T03:23:06.731Z,0.00
2018-01-12T03:24:06.736Z,0.00
2018-01-12T03:25:06.738Z,0.00
2018-01-12T03:26:06.741Z,0.00
2018-01-12T03:27:06.743Z,0.00
2018-01-12T03:28:06.743Z,0.00
2018-01-12T03:29:06.754Z,0.00
2018-01-12T03:30:06.751Z,0.00
2018-01-12T03:31:06.751Z,0.00
2018-01-12T03:32:06.760Z,0.00
2018-01-12T03:33:06.756Z,0.00
2018-01-12T03:34:06.762Z,0.00
2018-01-12T03:35:06.763Z,0.00
2018-01-12T03:36:06.772Z,0.00
2018-01-12T03:37:06.767Z,0.00
2018-01-12T03:38:06.776Z,0.00
2018-01-12T03:39:06.773Z,0.00
2018-01-12T03:40:06.775Z,0.00
2018-01-12T03:41:06.781Z,0.00
2018-01-12T03:42:06.786Z,0.00
2018-01-12T03:43:06.789Z,0.00
2018-01-12T03:44:06.790Z,0.00
2018-01-12T03:45:06.787Z,0.00
2018-01-12T03:46:06.790Z,0.00
2018-01-12T03:47:06.796Z,0.00
2018-01-12T03:48:06.797Z,0.00
2018-01-12T03:49:06.804Z,0.00
2018-01-12T03:50:06.803Z,0.00
2018-01-12T03:51:06.810Z,0.00
2018-01-12T03:52:06.808Z,0.00
2018-01-12T03:53:06.812Z,0.00
2018-01-12T03:54:06.812Z,0.00
2018-01-12T03:55:06.820Z,0.00
2018-01-12T03:56:06.823Z,0.00
2018-01-12T03:57:06.828Z,0.00
2018-01-12T03:58:06.823Z,0.00
2018-01-12T03:59:06.831Z,0.00
2018-01-12T04:00:06.829Z,0.00
2018-01-12T04:01:06.836Z,0.00
2018-01-12T04:02:06.840Z,0.00
2018-01-12T04:03:06.841Z,0.00
2018-01-12T04:04:06.849Z,0.00
2018-01-12T04:05:06.844Z,0.00
2018-01-12T04:06:06.846Z,0.00
2018-01-12T04:07:06.850Z,0.00
2018-01-12T04:08:06.855Z,0.00
2018-01-12T04:09:06.852Z,0.00
2018-01-12T04:10:06.861Z,0.00
2018-01-12T04:11:06.863Z,0.00
2018-01-12T04:12:06.920Z,0.00
2018-01-12T04:13:06.868Z,0.00
2018-01-12T04:14:06.867Z,0.00
2018-01-12T04:15:06.872Z,0.00
2018-01-12T04:16:06.872Z,0.00
2018-01-12T04:17:06.876Z,0.00
2018-01-12T04:18:06.882Z,0.00
2018-01-12T04:19:06.888Z,0.00
2018-01-12T04:20:06.883Z,0.00
2018-01-12T04:21:06.919Z,0.00
2018-01-12T04:22:06.891Z,0.00
2018-01-12T04:23:06.891Z,0.00
2018-01-12T04:24:06.894Z,0.00
2018-01-12T04:25:06.899Z,0.00
2018-01-12T04:26:06.908Z,0.00
2018-01-12T04:27:06.900Z,0.00
2018-01-12T04:28:07.816Z,0.00
2018-01-12T04:29:06.907Z,0.00
2018-01-12T04:30:06.911Z,0.00
2018-01-12T04:31:06.915Z,0.00
2018-01-12T04:32:06.919Z,0.00
2018-01-12T04:33:06.918Z,0.00
2018-01-12T04:34:06.926Z,0.00
2018-01-12T04:35:06.977Z,0.00
2018-01-12T04:36:06.928Z,0.00
2018-01-12T04:37:06.927Z,0.00
2018-01-12T04:38:06.936Z,0.00
2018-01-12T04:39:06.939Z,0.00
2018-01-12T04:40:06.938Z,0.00
2018-01-12T04:41:06.940Z,0.00
2018-01-12T04:42:06.945Z,0.00
2018-01-12T04:43:06.946Z,0.00
2018-01-12T04:44:06.947Z,0.00
2018-01-12T04:45:06.956Z,0.00
2018-01-12T04:46:06.952Z,0.00
2018-01-12T04:47:06.958Z,0.00
2018-01-12T04:48:06.956Z,0.00
2018-01-12T04:49:06.964Z,0.00
2018-01-12T04:50:06.967Z,0.00
2018-01-12T04:51:06.972Z,0.00
2018-01-12T04:52:06.963Z,0.00
2018-01-12T04:53:06.974Z,0.00
2018-01-12T04:54:06.975Z,0.00
2018-01-12T04:55:06.976Z,0.00
2018-01-12T04:56:06.978Z,0.00
2018-01-12T04:57:06.979Z,0.00
2018-01-12T04:58:06.984Z,4.00
2018-01-12T04:59:06.987Z,4.00
2018-01-12T05:00:06.989Z,0.00
2018-01-12T05:01:06.997Z,0.00
2018-01-12T05:02:06.999Z,0.00
2018-01-12T05:03:07.007Z,0.00
2018-01-12T05:04:06.998Z,0.00
2018-01-12T05:05:07.006Z,0.00
2018-01-12T05:06:07.007Z,0.00
2018-01-12T05:07:07.008Z,0.00
2018-01-12T05:08:07.008Z,0.00
2018-01-12T05:09:07.017Z,0.00
2018-01-12T05:10:07.016Z,0.00
2018-01-12T05:11:07.024Z,4.00
2018-01-12T05:12:07.022Z,0.00
2018-01-12T05:13:07.029Z,0.00
2018-01-12T05:14:07.065Z,0.00
2018-01-12T05:15:07.037Z,0.00
2018-01-12T05:16:07.035Z,0.00
2018-01-12T05:17:07.034Z,0.00
2018-01-12T05:18:07.037Z,0.00
2018-01-12T05:19:07.043Z,0.00
2018-01-12T05:20:07.043Z,0.00
2018-01-12T05:21:07.047Z,0.00
2018-01-12T05:22:07.048Z,0.00
2018-01-12T05:23:07.058Z,0.00
2018-01-12T05:24:07.074Z,4.00
2018-01-12T05:25:07.057Z,0.00
2018-01-12T05:26:07.089Z,0.00
2018-01-12T05:27:07.062Z,0.00
2018-01-12T05:28:07.067Z,4.00
2018-01-12T05:29:07.066Z,4.00
2018-01-12T05:30:07.071Z,0.00
2018-01-12T05:31:07.071Z,0.00
2018-01-12T05:32:07.075Z,0.00
2018-01-12T05:33:07.079Z,0.00
2018-01-12T05:34:07.077Z,0.00
2018-01-12T05:35:07.086Z,0.00
2018-01-12T05:36:07.082Z,0.00
2018-01-12T05:37:07.091Z,0.00
2018-01-12T05:38:07.096Z,0.00
2018-01-12T05:39:07.097Z,4.00
2018-01-12T05:40:07.102Z,4.00
2018-01-12T05:41:07.110Z,0.00
2018-01-12T05:42:07.113Z,0.00
2018-01-12T05:43:07.106Z,0.00
2018-01-12T05:44:07.110Z,0.00
2018-01-12T05:45:07.143Z,0.00
2018-01-12T05:46:07.112Z,0.00
2018-01-12T05:47:07.118Z,0.00
2018-01-12T05:48:07.119Z,0.00
2018-01-12T05:49:07.120Z,0.00
2018-01-12T05:50:07.124Z,0.00
2018-01-12T05:51:07.124Z,0.00
2018-01-12T05:52:07.196Z,0.00
2018-01-12T05:53:07.155Z,0.00
2018-01-12T05:54:07.138Z,0.00
2018-01-12T05:55:07.135Z,0.00
2018-01-12T05:56:07.136Z,4.00
2018-01-12T05:57:07.161Z,0.00
2018-01-12T05:58:07.149Z,0.00
2018-01-12T05:59:07.208Z,0.00
2018-01-12T06:00:07.150Z,0.00
2018-01-12T06:01:07.155Z,4.00
2018-01-12T06:02:07.157Z,4.00
2018-01-12T06:03:07.159Z,0.00
2018-01-12T06:04:07.164Z,0.00
2018-01-12T06:05:07.165Z,0.00
2018-01-12T06:06:07.164Z,0.00
2018-01-12T06:07:07.173Z,0.00
2018-01-12T06:08:07.173Z,0.00
2018-01-12T06:09:07.171Z,8.00
2018-01-12T06:10:07.175Z,0.00
2018-01-12T06:11:07.185Z,0.00
2018-01-12T06:12:07.194Z,4.00
2018-01-12T06:13:07.188Z,0.00
2018-01-12T06:14:07.187Z,4.00
2018-01-12T06:15:07.189Z,0.00
2018-01-12T06:16:07.192Z,4.00
2018-01-12T06:17:07.211Z,0.00
2018-01-12T06:18:07.197Z,0.00
2018-01-12T06:19:07.205Z,0.00
2018-01-12T06:20:07.203Z,0.00
2018-01-12T06:21:07.214Z,0.00
2018-01-12T06:22:07.222Z,0.00
2018-01-12T06:23:07.218Z,0.00
2018-01-12T06:24:07.214Z,0.00
2018-01-12T06:25:07.218Z,0.00
2018-01-12T06:26:07.220Z,0.00
2018-01-12T06:27:07.226Z,4.00
2018-01-12T06:29:47.687Z,0.00
2018-01-12T06:30:47.692Z,0.00
2018-01-12T06:31:47.705Z,0.00
2018-01-12T06:32:47.695Z,0.00
2018-01-12T06:33:47.694Z,0.00
2018-01-12T06:34:47.699Z,0.00
2018-01-12T06:35:47.698Z,0.00
2018-01-12T06:36:47.699Z,0.00
2018-01-12T06:37:47.711Z,0.00
2018-01-12T06:38:47.722Z,4.00
2018-01-12T06:39:47.710Z,0.00
2018-01-12T06:40:47.715Z,0.00
2018-01-12T06:41:47.718Z,0.00
2018-01-12T06:42:47.721Z,4.00
2018-01-12T06:43:47.721Z,0.00
2018-01-12T06:44:47.724Z,4.00
2018-01-12T06:45:47.735Z,4.00
2018-01-12T06:46:47.732Z,0.00
2018-01-12T06:47:47.732Z,0.00
2018-01-12T06:48:47.738Z,0.00
2018-01-12T06:49:47.745Z,4.00
2018-01-12T06:50:47.739Z,0.00
2018-01-12T06:51:47.742Z,0.00
2018-01-12T06:52:47.742Z,0.00
2018-01-12T06:53:47.751Z,4.00
2018-01-12T06:54:47.753Z,4.00
2018-01-12T06:55:47.756Z,4.00
2018-01-12T06:56:47.753Z,0.00
2018-01-12T06:57:47.770Z,4.00
2018-01-12T06:58:47.768Z,4.00
2018-01-12T06:59:47.767Z,4.00
2018-01-12T07:00:47.767Z,0.00
2018-01-12T07:01:47.772Z,0.00
2018-01-12T07:02:47.772Z,0.00
2018-01-12T07:03:47.779Z,0.00
2018-01-12T07:04:47.773Z,4.00
2018-01-12T07:05:47.783Z,4.00
2018-01-12T07:06:47.781Z,4.00
2018-01-12T07:07:47.789Z,4.00
2018-01-12T07:08:47.789Z,8.00
2018-01-12T07:09:47.795Z,8.00
2018-01-12T07:10:47.808Z,8.00
2018-01-12T07:11:47.806Z,8.00
2018-01-12T07:12:47.797Z,12.00
2018-01-12T07:13:47.809Z,12.00
2018-01-12T07:14:47.803Z,16.00
2018-01-12T07:15:47.811Z,20.00
2018-01-12T07:16:47.807Z,20.00
2018-01-12T07:17:47.814Z,24.00
2018-01-12T07:18:47.819Z,24.00
2018-01-12T07:19:47.818Z,24.00
2018-01-12T07:20:47.825Z,24.00
2018-01-12T07:21:47.828Z,24.00
2018-01-12T07:22:47.830Z,28.00
2018-01-12T07:23:47.832Z,32.00
2018-01-12T07:24:47.840Z,36.00
2018-01-12T07:25:47.901Z,36.00
2018-01-12T07:26:47.840Z,40.00
2018-01-12T07:27:47.836Z,40.00
2018-01-12T07:28:47.842Z,40.00
2018-01-12T07:29:47.850Z,44.00
2018-01-12T07:30:47.854Z,48.00
2018-01-12T07:31:47.899Z,60.00
2018-01-12T07:32:47.851Z,68.00
2018-01-12T07:33:47.857Z,76.00
2018-01-12T07:34:47.859Z,76.00
2018-01-12T07:35:47.861Z,80.00
2018-01-12T07:36:47.864Z,84.00
2018-01-12T07:37:47.873Z,92.00
2018-01-12T07:38:47.870Z,92.00
2018-01-12T07:39:47.869Z,96.00
2018-01-12T07:40:47.873Z,92.00
2018-01-12T07:41:47.881Z,84.00
2018-01-12T07:42:47.879Z,80.00
2018-01-12T07:43:47.886Z,80.00
2018-01-12T07:44:47.890Z,84.00
2018-01-12T07:45:47.891Z,84.00
2018-01-12T07:46:47.891Z,92.00
2018-01-12T07:47:47.896Z,96.00
2018-01-12T07:48:47.902Z,104.00
2018-01-12T07:49:47.899Z,104.00
2018-01-12T07:50:47.905Z,104.00
2018-01-12T07:51:47.906Z,100.00
2018-01-12T07:52:47.905Z,104.00
2018-01-12T07:53:47.914Z,116.00
2018-01-12T07:54:47.914Z,128.00
2018-01-12T07:55:47.916Z,128.00
2018-01-12T07:56:47.918Z,136.00
2018-01-12T07:57:47.924Z,136.00
2018-01-12T07:58:47.960Z,136.00
2018-01-12T07:59:47.929Z,136.00
2018-01-12T08:00:47.983Z,140.00
2018-01-12T08:01:48.676Z,148.00
2018-01-12T08:02:47.932Z,148.00
2018-01-12T08:03:47.997Z,156.00
2018-01-12T08:04:47.939Z,164.00
2018-01-12T08:05:47.947Z,172.00
2018-01-12T08:06:47.942Z,184.00
2018-01-12T08:07:47.949Z,188.00
2018-01-12T08:08:47.986Z,188.00
2018-01-12T08:09:47.955Z,200.00
2018-01-12T08:10:47.954Z,212.00
2018-01-12T08:11:47.964Z,232.00
2018-01-12T08:12:47.959Z,260.00
2018-01-12T08:13:47.968Z,300.00
2018-01-12T08:14:47.971Z,328.00
2018-01-12T08:15:47.973Z,356.00
2018-01-12T08:16:47.980Z,376.00
2018-01-12T08:17:47.978Z,388.00
2018-01-12T08:18:47.980Z,392.00
2018-01-12T08:19:47.979Z,380.00
2018-01-12T08:20:47.986Z,356.00
2018-01-12T08:21:47.984Z,340.00
2018-01-12T08:22:47.993Z,328.00
2018-01-12T08:23:47.993Z,312.00
2018-01-12T08:24:47.997Z,288.00
2018-01-12T08:25:48.000Z,256.00
2018-01-12T08:26:48.002Z,228.00
2018-01-12T08:27:48.000Z,208.00
2018-01-12T08:28:48.007Z,200.00
2018-01-12T08:29:48.008Z,196.00
2018-01-12T08:30:48.022Z,188.00
2018-01-12T08:31:48.018Z,184.00
2018-01-12T08:32:48.016Z,172.00
2018-01-12T08:33:48.026Z,164.00
2018-01-12T08:34:48.022Z,160.00
2018-01-12T08:35:48.031Z,156.00
2018-01-12T08:36:48.028Z,152.00
2018-01-12T08:37:48.036Z,160.00
2018-01-12T08:38:48.037Z,160.00
2018-01-12T08:39:48.042Z,164.00
2018-01-12T08:40:48.040Z,164.00
2018-01-12T08:41:48.044Z,160.00
2018-01-12T08:42:48.046Z,160.00
2018-01-12T08:43:48.052Z,156.00
2018-01-12T08:44:48.054Z,164.00
2018-01-12T08:45:48.057Z,160.00
2018-01-12T08:46:48.059Z,164.00
2018-01-12T08:47:48.060Z,164.00
2018-01-12T08:48:48.064Z,160.00
2018-01-12T08:49:48.069Z,164.00
2018-01-12T08:50:48.072Z,164.00
2018-01-12T08:51:48.074Z,168.00
2018-01-12T08:52:48.077Z,168.00
2018-01-12T08:53:48.082Z,180.00
2018-01-12T08:54:48.084Z,192.00
2018-01-12T08:55:48.084Z,208.00
2018-01-12T08:56:48.084Z,212.00
2018-01-12T08:57:48.097Z,224.00
2018-01-12T08:58:48.096Z,228.00
2018-01-12T08:59:48.698Z,224.00
2018-01-12T09:00:48.097Z,224.00
2018-01-12T09:01:48.103Z,232.00
2018-01-12T09:02:48.103Z,240.00
2018-01-12T09:03:48.105Z,252.00
2018-01-12T09:04:48.107Z,272.00
2018-01-12T09:05:48.118Z,292.00
2018-01-12T09:06:48.124Z,300.00
2018-01-12T09:07:48.117Z,308.00
2018-01-12T09:08:48.120Z,316.00
2018-01-12T09:09:48.128Z,324.00
2018-01-12T09:10:48.124Z,336.00
2018-01-12T09:11:48.134Z,356.00
2018-01-12T09:12:48.136Z,372.00
2018-01-12T09:13:48.134Z,396.00
2018-01-12T09:14:48.137Z,404.00
2018-01-12T09:15:48.145Z,408.00
2018-01-12T09:16:48.152Z,412.00
2018-01-12T09:17:48.146Z,408.00
2018-01-12T09:18:48.152Z,404.00
2018-01-12T09:19:48.158Z,408.00
2018-01-12T09:20:48.155Z,400.00
2018-01-12T09:21:48.159Z,396.00
2018-01-12T09:22:48.161Z,400.00
2018-01-12T09:23:48.168Z,412.00
2018-01-12T09:24:48.166Z,432.00
2018-01-12T09:25:48.175Z,456.00
2018-01-12T09:26:48.187Z,484.00
2018-01-12T09:27:48.177Z,512.00
2018-01-12T09:28:48.178Z,532.00
2018-01-12T09:29:48.185Z,536.00
2018-01-12T09:30:48.191Z,560.00
2018-01-12T09:31:48.190Z,580.00
2018-01-12T09:32:48.192Z,580.00
2018-01-12T09:33:48.205Z,568.00
2018-01-12T09:34:48.199Z,548.00
2018-01-12T09:35:48.208Z,524.00
2018-01-12T09:36:48.203Z,520.00
2018-01-12T09:37:48.207Z,512.00
2018-01-12T09:38:48.222Z,508.00
2018-01-12T09:39:48.221Z,516.00
2018-01-12T09:40:48.218Z,540.00
2018-01-12T09:41:48.224Z,564.00
2018-01-12T09:42:48.223Z,564.00
2018-01-12T09:43:48.229Z,572.00
2018-01-12T09:44:48.230Z,604.00
2018-01-12T09:45:48.229Z,632.00
2018-01-12T09:46:48.235Z,656.00
2018-01-12T09:47:48.236Z,660.00
2018-01-12T09:48:48.244Z,664.00
2018-01-12T09:49:48.242Z,672.00
2018-01-12T09:50:48.249Z,680.00
2018-01-12T09:51:48.249Z,684.00
2018-01-12T09:52:48.271Z,696.00
2018-01-12T09:53:48.258Z,672.00
2018-01-12T09:54:48.263Z,668.00
2018-01-12T09:55:48.319Z,644.00
2018-01-12T09:56:48.314Z,600.00
2018-01-12T09:57:48.266Z,556.00
2018-01-12T09:58:48.268Z,516.00
2018-01-12T09:59:48.276Z,480.00
2018-01-12T10:00:48.280Z,460.00
2018-01-12T10:01:48.278Z,436.00
2018-01-12T10:02:48.284Z,408.00
2018-01-12T10:03:48.289Z,392.00
2018-01-12T10:04:48.305Z,384.00
2018-01-12T10:05:48.292Z,380.00
2018-01-12T10:06:48.314Z,380.00
2018-01-12T10:07:48.318Z,388.00
2018-01-12T10:08:48.297Z,400.00
2018-01-12T10:09:48.316Z,416.00
2018-01-12T10:10:48.362Z,448.00
2018-01-12T10:11:48.313Z,456.00
2018-01-12T10:12:48.315Z,456.00
2018-01-12T10:13:48.319Z,452.00
2018-01-12T10:14:48.324Z,444.00
2018-01-12T10:15:48.325Z,436.00
2018-01-12T10:16:48.357Z,436.00
2018-01-12T10:17:48.331Z,444.00
2018-01-12T10:18:48.376Z,460.00
2018-01-12T10:19:48.344Z,468.00
2018-01-12T10:20:48.382Z,484.00
2018-01-12T10:21:48.386Z,500.00
2018-01-12T10:22:48.348Z,508.00
2018-01-12T10:23:48.362Z,516.00
2018-01-12T10:24:48.348Z,500.00
2018-01-12T10:25:48.353Z,480.00
2018-01-12T10:26:48.362Z,456.00
2018-01-12T10:27:48.379Z,432.00
2018-01-12T10:28:48.394Z,404.00
2018-01-12T10:29:48.390Z,380.00
2018-01-12T10:30:48.392Z,360.00
2018-01-12T10:31:48.380Z,352.00
2018-01-12T10:32:48.403Z,356.00
2018-01-12T10:33:48.423Z,360.00
2018-01-12T10:34:48.402Z,364.00
2018-01-12T10:35:48.391Z,364.00
2018-01-12T10:36:49.211Z,364.00
2018-01-12T10:37:48.415Z,372.00
2018-01-12T10:38:48.420Z,384.00
2018-01-12T10:39:48.394Z,396.00
2018-01-12T10:40:48.478Z,408.00
2018-01-12T10:41:48.422Z,424.00
2018-01-12T10:42:48.465Z,428.00
2018-01-12T10:43:48.451Z,440.00
2018-01-12T10:44:48.491Z,460.00
2018-01-12T10:45:48.420Z,480.00
2018-01-12T10:46:48.470Z,504.00
2018-01-12T10:47:48.423Z,520.00
2018-01-12T10:48:48.442Z,532.00
2018-01-12T10:49:49.210Z,544.00
2018-01-12T10:50:48.439Z,560.00
2018-01-12T10:51:48.435Z,556.00
2018-01-12T10:52:48.440Z,544.00
2018-01-12T10:53:48.440Z,548.00
2018-01-12T10:54:48.444Z,548.00
2018-01-12T10:55:48.450Z,560.00
2018-01-12T10:56:48.450Z,560.00
2018-01-12T10:57:48.457Z,564.00
2018-01-12T10:58:48.456Z,572.00
2018-01-12T10:59:48.464Z,568.00
2018-01-12T11:00:48.465Z,564.00
2018-01-12T11:01:48.469Z,556.00
2018-01-12T11:02:48.472Z,544.00
2018-01-12T11:03:48.471Z,548.00
2018-01-12T11:04:48.476Z,544.00
2018-01-12T11:05:48.482Z,536.00
2018-01-12T11:06:48.510Z,520.00
2018-01-12T11:07:48.487Z,512.00
2018-01-12T11:08:48.492Z,508.00
2018-01-12T11:09:48.491Z,512.00
2018-01-12T11:10:48.496Z,508.00
2018-01-12T11:11:48.496Z,504.00
2018-01-12T11:12:48.502Z,496.00
2018-01-12T11:13:48.500Z,496.00
2018-01-12T11:14:48.510Z,516.00
2018-01-12T11:15:48.504Z,552.00
2018-01-12T11:16:48.513Z,584.00
2018-01-12T11:17:48.516Z,608.00
2018-01-12T11:18:48.518Z,616.00
2018-01-12T11:19:48.525Z,644.00
2018-01-12T11:20:48.529Z,680.00
2018-01-12T11:21:48.528Z,716.00
2018-01-12T11:22:48.530Z,740.00
2018-01-12T11:23:48.538Z,752.00
2018-01-12T11:24:48.542Z,760.00
2018-01-12T11:25:48.540Z,756.00
2018-01-12T11:26:48.545Z,760.00
2018-01-12T11:27:48.546Z,752.00
2018-01-12T11:28:48.550Z,744.00
2018-01-12T11:29:48.558Z,740.00
2018-01-12T11:30:48.562Z,724.00
2018-01-12T11:31:48.558Z,700.00
2018-01-12T11:32:48.561Z,696.00
2018-01-12T11:33:48.568Z,704.00
2018-01-12T11:34:48.569Z,708.00
2018-01-12T11:35:48.573Z,724.00
2018-01-12T11:36:49.226Z,736.00
2018-01-12T11:37:48.618Z,748.00
2018-01-12T11:38:48.588Z,772.00
2018-01-12T11:39:48.584Z,828.00
2018-01-12T11:40:48.588Z,904.00
2018-01-12T11:41:48.592Z,952.00
2018-01-12T11:42:48.597Z,968.00
2018-01-12T11:43:48.604Z,956.00
2018-01-12T11:44:48.600Z,956.00
2018-01-12T11:45:48.606Z,964.00
2018-01-12T11:46:48.611Z,1004.00
2018-01-12T11:47:48.609Z,1020.00
2018-01-12T11:48:48.616Z,1044.00
2018-01-12T11:49:48.622Z,1064.00
2018-01-12T11:50:48.619Z,1056.00
2018-01-12T11:51:48.630Z,1052.00
2018-01-12T11:52:48.623Z,1008.00
2018-01-12T11:53:48.635Z,976.00
2018-01-12T11:54:48.635Z,948.00
2018-01-12T11:55:48.641Z,944.00
2018-01-12T11:56:48.641Z,940.00
2018-01-12T11:57:48.644Z,948.00
2018-01-12T11:58:48.649Z,944.00
2018-01-12T11:59:48.659Z,928.00
2018-01-12T12:00:48.653Z,908.00
2018-01-12T12:01:48.659Z,868.00
2018-01-12T12:02:48.656Z,824.00
2018-01-12T12:03:48.706Z,776.00
2018-01-12T12:04:48.670Z,748.00
2018-01-12T12:05:48.673Z,728.00
2018-01-12T12:06:48.679Z,724.00
2018-01-12T12:07:48.678Z,720.00
2018-01-12T12:08:48.684Z,712.00
2018-01-12T12:09:48.686Z,688.00
2018-01-12T12:10:48.737Z,672.00
2018-01-12T12:11:48.693Z,648.00
2018-01-12T12:12:48.699Z,632.00
2018-01-12T12:13:48.698Z,620.00
2018-01-12T12:14:48.710Z,624.00
2018-01-12T12:15:48.706Z,640.00
2018-01-12T12:16:48.712Z,652.00
2018-01-12T12:17:48.716Z,668.00
2018-01-12T12:18:48.719Z,688.00
2018-01-12T12:19:48.715Z,692.00
2018-01-12T12:20:48.723Z,708.00
2018-01-12T12:21:48.728Z,704.00
2018-01-12T12:22:48.736Z,712.00
2018-01-12T12:23:48.733Z,716.00
2018-01-12T12:24:48.733Z,732.00
2018-01-12T12:25:48.742Z,748.00
2018-01-12T12:26:48.746Z,788.00
2018-01-12T12:27:48.744Z,832.00
2018-01-12T12:28:48.750Z,888.00
2018-01-12T12:29:48.753Z,916.00
2018-01-12T12:30:48.761Z,928.00
2018-01-12T12:31:48.756Z,920.00
2018-01-12T12:32:48.761Z,916.00
2018-01-12T12:33:48.766Z,932.00
2018-01-12T12:34:48.770Z,904.00
2018-01-12T12:35:48.772Z,896.00
2018-01-12T12:36:48.771Z,880.00
2018-01-12T12:37:48.782Z,872.00
2018-01-12T12:38:48.785Z,848.00
2018-01-12T12:39:48.789Z,808.00
2018-01-12T12:40:48.792Z,780.00
2018-01-12T12:41:48.798Z,752.00
2018-01-12T12:42:48.798Z,736.00
2018-01-12T12:43:48.813Z,708.00
2018-01-12T12:44:48.800Z,664.00
2018-01-12T12:45:48.809Z,628.00
2018-01-12T12:46:48.810Z,604.00
2018-01-12T12:47:48.817Z,604.00
2018-01-12T12:48:48.816Z,624.00
2018-01-12T12:49:48.816Z,640.00
2018-01-12T12:50:48.823Z,648.00
2018-01-12T12:51:48.825Z,652.00
2018-01-12T12:52:48.826Z,648.00
2018-01-12T12:53:48.836Z,648.00
2018-01-12T12:54:48.840Z,664.00
2018-01-12T12:55:48.840Z,680.00
2018-01-12T12:56:48.843Z,696.00
2018-01-12T12:57:48.851Z,708.00